North Brunswick, New Jersey
Current Conditions -  °F | °C
As of 12:53 PM on Thursday 30 Oct 2014 (Local Time) from KSMQ Reporting Station
Broken Clouds Broken Clouds  
Wind Chill: 57°   Ceiling: 4000
Heat Index: 57°   Visibility: 10mi
Dew Point: 38°   Wind: 9mph
Humidity: 49%   Direction: 320°NW
Pressure: 29.99"   Gusts: NA
Location:  40.45°N, 74.48°W
Report Text: KSMQ 301653Z AUTO 32008KT 10SM BKN040 14/03 A2999 RMK AO2 SLP158 T01390033
Loading
Personal Weather Stations






























Interactive Weather Map
Tropical Storm Tracking
New forecast layout! Learn more

10-Day Weather Forecast

Advertisements
Track Severe Weather on mobile